TFM - Tactical Decision Aid (Experimental) INFO Settings
ID: Runway Winds: CIG/VIS Threshold: METAR Board: Map:

KDFW - Dallas/Fort Worth Intl

Updated at: 0034 UTC 23 Jul 2017
Latest TAF at: 2331 UTC 22 Jul 2017

TAF Board

Time2353Z23/01Z23/02Z23/03Z23/04Z23/05Z23/06Z23/07Z23/08Z23/09Z23/10Z23/11Z23/12Z23/13Z
TypeOBSPRVLPRVLPRVLPRVLPRVLPRVLPRVLPRVLPRVLPRVLPRVLPRVLPRVL
VIS10>6>6>6>6>6>6>6>6>6>6>6>6>6
CIG----------------------------
CoverFEWSCTSCTSCTSCTSCTSCTSCTSCTSCTSCTSCTSCTSCT
FltCatVFRVFRVFRVFRVFRVFRVFRVFRVFRVFRVFRVFRVFRVFR
WX----------------------------
WDir170150150150150150150150150150150150150150
WSpd119999999999999
WGst----------------------------
TAF
KDFW 222331Z 2300/2406 15009KT P6SM FEW080 SCT110 SCT250
  FM232100 20008KT P6SM VCTS SCT060CB
  FM240100 15009KT P6SM FEW080 SCT250


METAR
KDFW 222353Z 17011KT 10SM FEW075 FEW250 37/20 A2981 RMK AO2 SLP083 CB DSNT NW TCU DSNT N T03670200 10383 20356 56017

TAF/METAR Board Legend

Potential Impact
  None Marginal Slight Moderate High
Visibility (sm) >5 3≤X≤5 1≤X<3 0.5≤X<1 <0.5
Ceiling (100 ft) >30 10≤X≤30 4≤X<10 2≤X<4 <2
Wind Speed (kt) <10 10≤X<20 20≤X<30 ≥30
Wind Gust (kt) <15 15≤X<25 25≤X<35 ≥35
Weather No Wx Reported VCTS -TS,-FZRA TS,FZRA +TS,+FZRA




Page loaded:  00:34 UTC  |   05:34 PM Pacific  |   06:34 PM Mountain  |   07:34 PM Central  |   08:34 PM Eastern